Time;durP1;ratioP1;P1;durP2;ratioP2;P2;SDS_P1;SDS_P2;PMS_P1;PMS_P2;Temp;Humidity;BMP_temperature;BMP_pressure;BME280_temperature;BME280_humidity;BME280_pressure;Samples;Min_cycle;Max_cycle;Signal;HPM_P1;HPM_P2
2022/11/10 00:02:14;;;;;;;13.02;8.43;;;;;;;10.74;100.00;100366.47;6297821;28;19948;-78
2022/11/10 00:05:15;;;;;;;18.50;9.07;;;;;;;10.74;100.00;100356.03;6299005;28;20119;-77
2022/11/10 00:08:16;;;;;;;20.13;9.50;;;;;;;10.78;100.00;100360.97;6298710;28;20142;-78
2022/11/10 00:11:16;;;;;;;17.55;10.32;;;;;;;10.79;100.00;100362.69;6280933;28;20041;-78
2022/11/10 00:17:37;;;;;;;13.55;8.50;;;;;;;10.84;100.00;100352.81;6297845;28;20048;-74
2022/11/10 00:20:38;;;;;;;16.20;8.98;;;;;;;10.83;100.00;100353.75;6279716;28;20243;-74
2022/11/10 00:23:38;;;;;;;16.88;8.90;;;;;;;10.76;100.00;100348.97;6282535;28;20400;-74
2022/11/10 00:26:39;;;;;;;16.30;9.43;;;;;;;10.85;100.00;100356.25;6283004;28;20116;-75
2022/11/10 00:29:40;;;;;;;19.05;9.57;;;;;;;10.84;100.00;100359.81;6296659;28;20041;-75
2022/11/10 00:32:41;;;;;;;16.70;9.27;;;;;;;10.78;100.00;100360.16;6295474;28;20043;-74
2022/11/10 00:35:42;;;;;;;18.45;9.73;;;;;;;10.79;100.00;100354.00;6279598;28;20087;-74
2022/11/10 00:38:42;;;;;;;40.33;9.15;;;;;;;10.70;100.00;100357.97;6271485;28;20045;-74
2022/11/10 00:41:43;;;;;;;16.27;7.57;;;;;;;10.69;100.00;100340.66;6271545;28;20438;-74
2022/11/10 00:44:45;;;;;;;16.67;8.63;;;;;;;10.76;100.00;100349.78;6270487;28;20489;-74
2022/11/10 00:47:48;;;;;;;14.55;8.25;;;;;;;10.70;100.00;100352.75;6271495;28;20119;-74
2022/11/10 00:50:49;;;;;;;17.40;9.50;;;;;;;10.80;100.00;100356.50;6270102;28;20053;-74
2022/11/10 00:53:51;;;;;;;14.30;8.32;;;;;;;10.84;100.00;100360.63;6273647;28;20051;-74
2022/11/10 00:56:53;;;;;;;16.35;8.13;;;;;;;10.85;100.00;100358.84;6295064;28;20043;-77
2022/11/10 00:59:54;;;;;;;14.65;8.02;;;;;;;10.82;100.00;100346.00;6298280;28;20047;-78
2022/11/10 01:02:55;;;;;;;15.68;8.50;;;;;;;10.77;100.00;100338.44;6296536;28;20048;-78
2022/11/10 01:05:56;;;;;;;21.23;7.18;;;;;;;10.77;100.00;100341.03;6330347;28;20037;-78
2022/11/10 01:08:57;;;;;;;15.40;7.78;;;;;;;10.71;100.00;100335.31;6297914;28;20090;-78
2022/11/10 01:11:58;;;;;;;13.55;7.57;;;;;;;10.67;100.00;100325.06;6297769;28;20044;-78
2022/11/10 01:14:58;;;;;;;13.48;7.40;;;;;;;10.69;100.00;100322.38;6296124;28;20047;-74
2022/11/10 01:17:59;;;;;;;15.68;7.57;;;;;;;10.78;100.00;100324.44;6294756;28;20049;-75
2022/11/10 01:21:00;;;;;;;13.00;7.80;;;;;;;10.76;100.00;100328.91;6295906;28;20047;-74
2022/11/10 01:24:03;;;;;;;16.30;6.93;;;;;;;10.78;100.00;100326.22;6296012;28;20037;-74
2022/11/10 01:27:04;;;;;;;12.65;7.03;;;;;;;10.77;100.00;100327.13;6272480;28;20471;-78
2022/11/10 01:30:05;;;;;;;13.65;7.72;;;;;;;10.74;100.00;100330.78;6272647;28;20037;-78
2022/11/10 01:33:07;;;;;;;16.35;7.90;;;;;;;10.77;100.00;100334.97;6272689;28;20037;-77
2022/11/10 01:36:09;;;;;;;14.68;8.05;;;;;;;10.74;100.00;100330.78;6271339;28;20049;-77
2022/11/10 01:39:10;;;;;;;;;;;;;;;10.77;100.00;100335.81;6288478;28;20045;-78
2022/11/10 01:42:11;;;;;;;11.82;6.22;;;;;;;10.79;100.00;100331.34;6271253;28;19971;-78
2022/11/10 01:45:21;;;;;;;13.25;7.13;;;;;;;10.83;100.00;100332.00;6271381;28;20114;-78
2022/11/10 01:48:37;;;;;;;13.55;7.22;;;;;;;10.76;100.00;100338.50;6272086;28;20497;-78
2022/11/10 01:51:48;;;;;;;11.88;6.50;;;;;;;10.79;100.00;100338.31;6276096;28;20045;-78
2022/11/10 01:54:49;;;;;;;16.10;7.32;;;;;;;10.77;100.00;100330.59;6277173;28;20047;-78
2022/11/10 01:57:50;;;;;;;13.82;7.40;;;;;;;10.68;100.00;100329.34;6277043;28;20041;-78
2022/11/10 02:00:52;;;;;;;12.18;6.75;;;;;;;10.69;100.00;100331.03;6259002;28;20061;-78
2022/11/10 02:04:00;;;;;;;14.02;7.57;;;;;;;10.68;100.00;100331.94;6277021;28;20079;-78
2022/11/10 02:07:01;;;;;;;10.88;6.20;;;;;;;10.61;100.00;100329.81;6276799;28;20051;-78
2022/11/10 02:10:03;;;;;;;12.73;6.90;;;;;;;10.61;100.00;100324.59;6275920;28;20059;-75
2022/11/10 02:13:04;;;;;;;11.15;6.85;;;;;;;10.67;100.00;100332.91;6257308;28;20049;-74
2022/11/10 02:16:05;;;;;;;15.20;7.13;;;;;;;10.61;100.00;100328.03;6274442;28;20200;-74
2022/11/10 02:19:23;;;;;;;15.33;7.53;;;;;;;10.68;100.00;100328.50;6276229;28;20073;-78
2022/11/10 02:22:28;;;;;;;17.83;7.65;;;;;;;10.67;100.00;100329.44;6275257;28;20041;-78
2022/11/10 02:25:31;;;;;;;11.77;6.10;;;;;;;10.62;100.00;100334.91;6276551;28;20041;-78
2022/11/10 02:28:35;;;;;;;13.75;6.65;;;;;;;10.62;100.00;100329.69;6276362;28;20048;-78
2022/11/10 02:31:36;;;;;;;14.75;7.63;;;;;;;10.66;100.00;100330.38;6276192;28;20477;-78
2022/11/10 02:34:36;;;;;;;12.15;6.78;;;;;;;10.69;100.00;100328.44;6275040;28;20129;-78
2022/11/10 02:37:37;;;;;;;14.73;7.22;;;;;;;10.57;100.00;100326.50;6276148;28;20124;-78
2022/11/10 02:40:38;;;;;;;14.63;7.70;;;;;;;10.51;100.00;100316.44;6274782;28;20466;-78
2022/11/10 02:43:39;;;;;;;12.50;7.70;;;;;;;10.61;100.00;100316.75;6276036;28;20090;-78
2022/11/10 02:46:42;;;;;;;11.45;6.78;;;;;;;10.60;100.00;100336.75;6275971;28;20037;-78
2022/11/10 02:49:43;;;;;;;14.68;7.15;;;;;;;10.60;100.00;100333.31;6274649;28;20049;-77
2022/11/10 02:52:44;;;;;;;15.70;7.87;;;;;;;10.61;100.00;100335.84;6274575;28;20041;-77
2022/11/10 02:55:45;;;;;;;10.90;6.82;;;;;;;10.69;100.00;100338.88;6274625;28;20471;-74
2022/11/10 02:58:48;;;;;;;14.30;6.57;;;;;;;10.61;100.00;100337.63;6274600;28;20506;-74
2022/11/10 03:01:49;;;;;;;12.60;6.72;;;;;;;10.67;100.00;100339.88;6273765;28;20045;-78
2022/11/10 03:04:50;;;;;;;11.35;6.78;;;;;;;10.62;100.00;100337.50;6257180;28;20060;-75
2022/11/10 03:07:54;;;;;;;14.32;6.72;;;;;;;10.57;100.00;100341.34;6273632;28;20481;-78
2022/11/10 03:10:55;;;;;;;10.20;6.38;;;;;;;10.63;100.00;100343.59;6274210;28;20068;-77
2022/11/10 03:13:56;;;;;;;16.37;7.63;;;;;;;10.67;100.00;100345.94;6273910;28;20102;-74
2022/11/10 03:16:57;;;;;;;11.35;6.97;;;;;;;10.69;100.00;100351.09;6272486;28;20041;-74
2022/11/10 03:19:57;;;;;;;12.15;6.45;;;;;;;10.61;100.00;100348.06;6273344;28;20041;-74
2022/11/10 03:23:03;;;;;;;18.63;7.40;;;;;;;10.68;100.00;100352.81;6273825;28;20044;-78
2022/11/10 03:26:05;;;;;;;12.30;6.88;;;;;;;10.57;100.00;100355.22;6257131;28;20056;-78
2022/11/10 03:29:06;;;;;;;13.43;7.25;;;;;;;10.67;100.00;100358.16;6274893;28;20116;-78
2022/11/10 03:32:07;;;;;;;11.20;6.00;;;;;;;10.69;100.00;100359.75;6274918;28;20052;-78
2022/11/10 03:35:07;;;;;;;9.82;5.68;;;;;;;10.62;100.00;100361.00;6273629;28;20041;-78
2022/11/10 03:38:08;;;;;;;11.85;6.80;;;;;;;10.60;100.00;100352.41;6274736;28;20037;-78
2022/11/10 03:41:09;;;;;;;10.90;6.55;;;;;;;10.67;100.00;100351.16;6272673;28;20120;-75
2022/11/10 03:44:10;;;;;;;11.18;5.97;;;;;;;10.69;100.00;100361.53;6273615;28;20036;-78
2022/11/10 03:47:12;;;;;;;15.48;7.30;;;;;;;10.63;100.00;100348.81;6273539;28;20061;-74
2022/11/10 03:50:16;;;;;;;19.08;6.80;;;;;;;10.67;100.00;100352.94;6254882;28;20091;-75
2022/11/10 03:53:17;;;;;;;12.30;7.15;;;;;;;10.61;100.00;100356.72;6272681;28;20041;-74
2022/11/10 03:56:17;;;;;;;9.98;6.22;;;;;;;10.63;100.00;100356.66;6272737;28;20064;-75
2022/11/10 03:59:18;;;;;;;11.85;6.50;;;;;;;10.69;100.00;100362.34;6274410;28;20037;-78
2022/11/10 04:02:19;;;;;;;14.85;6.97;;;;;;;10.78;100.00;100358.38;6272689;28;20075;-78
2022/11/10 04:08:59;;;;;;;9.23;5.35;;;;;;;10.69;100.00;100362.34;6273907;28;20033;-78
2022/11/10 04:18:38;;;;;;;12.23;6.97;;;;;;;10.80;100.00;100371.34;6273636;28;20045;-78
2022/11/10 04:21:39;;;;;;;11.13;6.03;;;;;;;10.79;100.00;100372.25;6272002;28;20052;-74
2022/11/10 04:24:40;;;;;;;11.32;6.18;;;;;;;10.70;100.00;100384.06;6272010;28;20466;-74
2022/11/10 04:27:41;;;;;;;10.43;6.68;;;;;;;10.78;100.00;100381.88;6270767;28;20045;-74
2022/11/10 04:30:43;;;;;;;12.07;6.32;;;;;;;10.74;100.00;100382.97;6271791;28;20041;-74
2022/11/10 04:33:45;;;;;;;11.90;6.28;;;;;;;10.77;100.00;100393.25;6270668;28;20079;-74
2022/11/10 04:36:46;;;;;;;11.13;6.50;;;;;;;10.77;100.00;100380.19;6271871;28;20048;-76
2022/11/10 04:39:47;;;;;;;12.50;6.50;;;;;;;10.82;100.00;100390.38;6273155;28;20171;-77
2022/11/10 04:42:47;;;;;;;11.27;6.68;;;;;;;10.82;100.00;100388.59;6288692;28;20512;-78
2022/11/10 04:45:49;;;;;;;13.07;7.43;;;;;;;10.74;100.00;100387.34;6273283;28;20041;-78
2022/11/10 04:48:50;;;;;;;12.38;6.70;;;;;;;10.73;100.00;100390.88;6273194;28;20041;-78
2022/11/10 04:51:51;;;;;;;12.97;7.00;;;;;;;10.73;100.00;100393.50;6271850;28;20048;-78
2022/11/10 04:54:51;;;;;;;10.13;6.18;;;;;;;10.69;100.00;100400.66;6273155;28;20499;-77
2022/11/10 04:57:55;;;;;;;10.38;5.75;;;;;;;10.71;100.00;100397.94;6291758;28;20056;-77
2022/11/10 05:00:55;;;;;;;12.18;6.75;;;;;;;10.63;100.00;100396.63;6297625;28;20136;-78
2022/11/10 05:03:56;;;;;;;13.55;6.97;;;;;;;10.64;100.00;100394.84;6296615;28;20047;-78
2022/11/10 05:06:57;;;;;;;12.80;7.05;;;;;;;10.69;100.00;100405.88;6297735;28;20032;-78
2022/11/10 05:09:57;;;;;;;13.48;6.65;;;;;;;10.70;100.00;100399.72;6296587;28;20044;-77
2022/11/10 05:12:58;;;;;;;11.45;6.57;;;;;;;10.63;100.00;100401.00;6288629;28;20159;-78
2022/11/10 05:15:59;;;;;;;13.75;7.75;;;;;;;10.69;100.00;100401.50;6272815;28;20120;-78
2022/11/10 05:37:11;;;;;;;15.52;7.75;;;;;;;10.52;100.00;100412.00;6342009;27;20383;-73
2022/11/10 05:40:12;;;;;;;15.20;7.13;;;;;;;10.54;100.00;100411.94;6334070;28;20047;-76
2022/11/10 05:43:14;;;;;;;11.38;6.40;;;;;;;10.58;100.00;100413.44;6318135;28;20040;-75
2022/11/10 05:46:14;;;;;;;12.03;7.47;;;;;;;10.54;100.00;100412.78;6312902;28;20051;-79
2022/11/10 05:49:15;;;;;;;12.13;6.65;;;;;;;10.56;100.00;100418.75;6316578;28;20115;-75
2022/11/10 05:52:16;;;;;;;13.30;6.75;;;;;;;10.57;100.00;100423.06;6318575;28;20086;-78
2022/11/10 05:55:22;;;;;;;11.23;6.40;;;;;;;10.58;100.00;100424.72;6317256;28;20048;-74
2022/11/10 05:58:23;;;;;;;10.98;6.20;;;;;;;10.49;100.00;100427.84;6315935;28;20044;-75
2022/11/10 06:01:24;;;;;;;14.05;6.93;;;;;;;10.44;100.00;100438.56;6315978;28;20667;-75
2022/11/10 06:04:24;;;;;;;11.40;6.57;;;;;;;10.51;100.00;100441.66;6318573;28;20040;-75
2022/11/10 06:07:25;;;;;;;11.13;6.55;;;;;;;10.47;100.00;100451.41;6300558;28;20052;-75
2022/11/10 06:10:26;;;;;;;13.05;7.15;;;;;;;10.52;100.00;100452.94;6317368;28;20037;-74
2022/11/10 06:13:28;;;;;;;12.00;6.80;;;;;;;10.57;100.00;100456.16;6316013;28;20043;-75
2022/11/10 06:16:28;;;;;;;12.20;6.47;;;;;;;10.57;100.00;100453.53;6317889;28;20481;-79
2022/11/10 06:19:29;;;;;;;13.52;6.75;;;;;;;10.55;100.00;100464.06;6317568;28;20058;-79
2022/11/10 06:22:30;;;;;;;12.63;7.40;;;;;;;10.56;100.00;100465.72;6300545;28;20105;-78
2022/11/10 06:25:33;;;;;;;15.07;7.10;;;;;;;10.60;100.00;100475.06;6317304;28;20670;-75
2022/11/10 06:28:34;;;;;;;11.85;6.63;;;;;;;10.65;100.00;100478.28;6315829;28;20074;-75
2022/11/10 06:31:35;;;;;;;14.00;6.78;;;;;;;10.67;100.00;100475.59;6316994;28;20044;-75
2022/11/10 06:34:36;;;;;;;12.60;6.90;;;;;;;10.67;100.00;100476.44;6315865;28;20410;-78
2022/11/10 06:37:40;;;;;;;16.08;7.50;;;;;;;10.75;100.00;100478.63;6303443;28;20044;-75
2022/11/10 06:40:40;;;;;;;14.02;7.25;;;;;;;10.75;100.00;100488.19;6283068;28;20131;-79
2022/11/10 06:43:41;;;;;;;15.88;7.40;;;;;;;10.81;100.00;100499.16;6301310;28;20127;-79
2022/11/10 06:46:42;;;;;;;12.50;7.18;;;;;;;10.78;100.00;100495.88;6299728;28;20045;-74
2022/11/10 06:49:42;;;;;;;13.75;6.80;;;;;;;10.80;100.00;100497.47;6294776;28;20033;-74
2022/11/10 06:52:43;;;;;;;12.80;7.72;;;;;;;10.83;100.00;100501.69;6299176;28;20124;-75
2022/11/10 06:55:44;;;;;;;14.30;7.20;;;;;;;10.87;100.00;100495.34;6298129;28;20056;-74
2022/11/10 06:58:45;;;;;;;14.63;7.55;;;;;;;10.89;100.00;100504.81;6297319;28;20517;-78
2022/11/10 07:01:47;;;;;;;15.40;6.63;;;;;;;10.88;100.00;100507.50;6294785;28;20044;-78
2022/11/10 07:04:49;;;;;;;13.27;7.20;;;;;;;10.94;100.00;100508.94;6300308;28;20643;-78
2022/11/10 07:07:50;;;;;;;;;;;;;;;10.94;100.00;100511.56;6299494;28;20476;-74
2022/11/10 07:10:53;;;;;;;14.95;7.18;;;;;;;11.02;100.00;100512.81;6299270;28;19920;-78
2022/11/10 07:13:54;;;;;;;13.23;7.32;;;;;;;10.99;100.00;100520.78;6299601;28;20036;-78
2022/11/10 07:16:54;;;;;;;13.50;6.85;;;;;;;10.92;100.00;100523.84;6300095;28;20047;-78
2022/11/10 07:19:55;;;;;;;17.35;7.28;;;;;;;10.94;100.00;100535.06;6300283;28;20174;-74
2022/11/10 07:23:01;;;;;;;9.70;6.00;;;;;;;11.02;100.00;100536.31;6298149;28;20045;-78
2022/11/10 07:26:04;;;;;;;11.77;7.03;;;;;;;11.08;100.00;100535.13;6298878;28;20037;-74
2022/11/10 07:29:04;;;;;;;12.52;7.07;;;;;;;11.04;100.00;100534.44;6298997;28;20503;-74
2022/11/10 07:32:05;;;;;;;16.13;7.72;;;;;;;11.12;100.00;100536.66;6299860;28;20041;-78
2022/11/10 07:35:06;;;;;;;13.00;7.30;;;;;;;11.09;100.00;100540.25;6300103;28;20064;-78
2022/11/10 07:38:10;;;;;;;13.18;7.30;;;;;;;11.14;100.00;100539.16;6298540;28;20064;-78
2022/11/10 07:41:11;;;;;;;15.50;7.65;;;;;;;11.12;100.00;100539.25;6298888;28;20039;-78
2022/11/10 07:44:11;;;;;;;12.82;7.32;;;;;;;11.13;100.00;100542.69;6299430;28;20040;-74
2022/11/10 07:47:14;;;;;;;14.02;7.22;;;;;;;11.27;100.00;100540.16;6296759;28;20044;-78
2022/11/10 07:50:16;;;;;;;11.57;5.88;;;;;;;11.25;100.00;100539.41;6258933;28;20104;-78
2022/11/10 07:53:21;;;;;;;18.40;7.63;;;;;;;11.36;100.00;100544.84;6293244;28;20044;-74
2022/11/10 07:56:25;;;;;;;12.30;6.97;;;;;;;11.23;100.00;100547.31;6259204;28;20044;-74
2022/11/10 07:59:26;;;;;;;10.95;7.10;;;;;;;11.37;100.00;100554.41;6298169;28;20041;-75
2022/11/10 08:02:27;;;;;;;15.18;7.65;;;;;;;11.38;100.00;100569.13;6280248;28;20101;-74
2022/11/10 08:05:28;;;;;;;11.05;6.60;;;;;;;11.43;100.00;100576.72;6296861;28;20496;-75
2022/11/10 08:08:29;;;;;;;15.55;8.50;;;;;;;11.28;100.00;100573.19;6296851;28;20060;-76
2022/11/10 08:11:29;;;;;;;14.32;7.60;;;;;;;11.27;100.00;100574.13;6297796;28;20055;-74
2022/11/10 08:14:30;;;;;;;13.55;7.68;;;;;;;11.31;100.00;100574.81;6297084;28;20044;-78
2022/11/10 08:17:31;;;;;;;12.98;7.65;;;;;;;11.26;100.00;100577.66;6288365;28;20072;-74
2022/11/10 08:20:32;;;;;;;13.10;7.20;;;;;;;11.34;100.00;100585.91;6296544;28;20105;-78
2022/11/10 08:23:33;;;;;;;12.27;6.90;;;;;;;11.36;100.00;100581.44;6297882;28;20143;-78
2022/11/10 08:26:34;;;;;;;17.08;7.88;;;;;;;11.32;100.00;100586.91;6298930;28;20399;-78
2022/11/10 08:29:35;;;;;;;16.65;8.00;;;;;;;11.46;100.00;100592.22;6296465;28;20458;-75
2022/11/10 08:32:35;;;;;;;12.80;6.57;;;;;;;11.40;100.00;100590.78;6283545;28;20041;-75
2022/11/10 08:35:39;;;;;;;15.57;7.90;;;;;;;11.43;100.00;100600.25;6272765;28;20061;-78
2022/11/10 08:38:40;;;;;;;13.68;8.07;;;;;;;11.56;100.00;100601.22;6272027;28;20065;-75
2022/11/10 08:41:41;;;;;;;14.45;8.02;;;;;;;11.70;100.00;100605.69;6271839;28;20052;-78
2022/11/10 08:44:41;;;;;;;14.30;8.10;;;;;;;11.83;100.00;100613.66;6254555;28;20087;-74
2022/11/10 08:47:43;;;;;;;13.93;8.25;;;;;;;11.97;100.00;100613.75;6273323;28;20037;-74
2022/11/10 08:50:45;;;;;;;12.13;7.28;;;;;;;12.05;100.00;100608.91;6285528;28;20064;-75
2022/11/10 08:53:46;;;;;;;17.40;8.57;;;;;;;12.08;100.00;100626.19;6296358;28;20070;-75
2022/11/10 08:56:47;;;;;;;16.63;9.38;;;;;;;12.02;100.00;100627.38;6297643;28;20048;-74
2022/11/10 08:59:47;;;;;;;13.73;7.88;;;;;;;12.17;100.00;100624.81;6296523;28;20041;-78
2022/11/10 09:02:48;;;;;;;16.67;8.52;;;;;;;12.18;100.00;100626.50;6296201;28;20044;-74
2022/11/10 09:05:53;;;;;;;17.77;8.95;;;;;;;12.22;100.00;100633.25;6295560;28;20545;-74
2022/11/10 09:08:56;;;;;;;16.08;8.38;;;;;;;12.21;100.00;100632.41;6296854;28;20044;-75
2022/11/10 09:11:57;;;;;;;18.25;8.88;;;;;;;12.20;100.00;100645.56;6298048;28;20529;-78
2022/11/10 09:14:58;;;;;;;20.75;9.30;;;;;;;12.21;100.00;100637.63;6297972;28;20048;-75
2022/11/10 09:18:00;;;;;;;14.73;8.35;;;;;;;12.25;100.00;100646.13;6295685;28;20044;-75
2022/11/10 09:21:03;;;;;;;18.67;9.07;;;;;;;12.25;100.00;100648.75;6278770;28;20440;-74
2022/11/10 09:24:03;;;;;;;;;;;;;;;12.27;100.00;100658.22;6296232;28;20036;-74
2022/11/10 09:27:04;;;;;;;16.98;8.75;;;;;;;12.29;100.00;100658.09;6297505;28;20330;-78
2022/11/10 09:30:06;;;;;;;16.90;8.68;;;;;;;12.19;100.00;100652.59;6296730;28;20492;-78
2022/11/10 09:33:07;;;;;;;13.25;8.48;;;;;;;12.15;100.00;100658.94;6280018;28;20045;-78
2022/11/10 09:36:08;;;;;;;19.77;9.95;;;;;;;12.26;100.00;100666.16;6296485;28;20538;-79
2022/11/10 09:39:09;;;;;;;17.67;9.50;;;;;;;12.34;100.00;100663.09;6295729;28;20052;-78
2022/11/10 09:42:35;;;;;;;16.02;9.45;;;;;;;12.29;100.00;100668.56;6296150;28;20063;-74
2022/11/10 09:45:41;;;;;;;18.30;9.77;;;;;;;12.33;100.00;100675.31;6295268;28;20052;-79
2022/11/10 09:48:57;;;;;;;18.75;9.82;;;;;;;12.26;100.00;100663.53;6290879;28;20033;-78
2022/11/10 09:52:01;;;;;;;17.38;9.57;;;;;;;12.27;100.00;100675.66;6279634;28;20075;-75
2022/11/10 09:55:37;;;;;;;18.38;9.90;;;;;;;12.30;100.00;100676.34;6296523;28;20052;-75
2022/11/10 09:58:42;;;;;;;15.90;9.20;;;;;;;12.41;100.00;100673.09;6293752;28;20036;-79
2022/11/10 10:01:55;;;;;;;17.95;10.20;;;;;;;12.49;100.00;100678.72;6296114;28;20454;-78
2022/11/10 10:05:02;;;;;;;21.13;11.30;;;;;;;12.54;100.00;100673.22;6295651;28;20074;-75
2022/11/10 10:08:09;;;;;;;20.83;12.02;;;;;;;12.50;100.00;100682.19;6295172;28;20411;-79
2022/11/10 10:11:10;;;;;;;24.30;12.25;;;;;;;12.47;100.00;100675.34;6278135;28;20099;-79
2022/11/10 10:14:55;;;;;;;29.38;12.73;;;;;;;12.41;100.00;100683.56;6276016;28;20049;-78
2022/11/10 10:18:07;;;;;;;31.38;13.85;;;;;;;12.45;100.00;100697.31;6246082;28;20048;-79
2022/11/10 10:21:29;;;;;;;28.17;15.07;;;;;;;12.47;100.00;100691.03;6264813;28;20446;-78
2022/11/10 10:24:31;;;;;;;32.50;15.93;;;;;;;12.52;100.00;100680.31;6276259;28;20045;-75
2022/11/10 10:27:37;;;;;;;32.80;16.73;;;;;;;12.52;100.00;100684.69;6295473;28;20056;-75
2022/11/10 10:30:40;;;;;;;33.10;14.73;;;;;;;12.53;100.00;100681.16;6300387;28;20036;-75
2022/11/10 10:33:40;;;;;;;41.13;16.92;;;;;;;12.66;100.00;100685.59;6298123;28;20047;-78
2022/11/10 10:36:43;;;;;;;35.15;17.73;;;;;;;12.76;100.00;100682.41;6299892;28;20420;-75
2022/11/10 10:39:47;;;;;;;33.40;17.15;;;;;;;12.73;100.00;100685.22;6299500;28;20064;-79
2022/11/10 10:42:48;;;;;;;43.40;18.27;;;;;;;12.68;100.00;100682.84;6300213;28;20092;-79
2022/11/10 10:46:07;;;;;;;38.22;16.65;;;;;;;12.75;100.00;100688.59;6300262;28;20044;-75
2022/11/10 10:49:22;;;;;;;40.15;17.42;;;;;;;12.80;100.00;100689.13;6298948;28;20040;-78
2022/11/10 10:52:24;;;;;;;48.38;18.80;;;;;;;12.86;100.00;100692.22;6283363;28;20049;-78
2022/11/10 10:55:28;;;;;;;51.63;18.93;;;;;;;12.78;100.00;100696.25;6300310;28;20044;-76
2022/11/10 10:58:28;;;;;;;40.22;17.80;;;;;;;12.76;100.00;100700.72;6299832;28;20400;-75
2022/11/10 11:01:35;;;;;;;46.28;18.17;;;;;;;12.75;100.00;100694.66;6299251;28;20037;-75
2022/11/10 11:04:36;;;;;;;48.83;17.98;;;;;;;12.72;100.00;100694.00;6299000;28;20075;-75
2022/11/10 11:07:37;;;;;;;42.45;18.95;;;;;;;12.76;100.00;100695.50;6298590;28;20479;-75
2022/11/10 11:10:44;;;;;;;45.40;17.80;;;;;;;12.74;100.00;100699.97;6298874;28;20072;-78
2022/11/10 11:13:46;;;;;;;48.70;19.27;;;;;;;12.75;100.00;100693.81;6300280;28;20404;-75
2022/11/10 11:16:52;;;;;;;46.40;18.98;;;;;;;12.78;100.00;100702.31;6298812;28;20063;-75
2022/11/10 11:19:54;;;;;;;50.38;19.80;;;;;;;12.78;100.00;100689.22;6298479;28;20446;-74
2022/11/10 11:23:21;;;;;;;54.67;21.08;;;;;;;12.56;100.00;100688.81;6300202;28;20145;-74
2022/11/10 11:26:34;;;;;;;45.08;19.50;;;;;;;12.62;100.00;100697.16;6281659;28;20076;-78
2022/11/10 11:29:44;;;;;;;52.80;18.30;;;;;;;12.70;100.00;100702.78;6298270;28;20090;-75
2022/11/10 11:33:03;;;;;;;50.15;19.02;;;;;;;12.77;100.00;100710.28;6298981;28;20119;-75
2022/11/10 11:36:12;;;;;;;46.05;19.25;;;;;;;12.81;100.00;100714.41;6298118;28;20055;-75
2022/11/10 11:39:29;;;;;;;52.17;19.13;;;;;;;12.85;100.00;100718.53;6297530;28;20040;-75
2022/11/10 11:42:49;;;;;;;41.85;17.42;;;;;;;12.80;100.00;100717.94;6298528;28;20040;-75
2022/11/10 11:46:06;;;;;;;43.33;17.85;;;;;;;12.83;100.00;100720.41;6281269;28;20041;-75
2022/11/10 11:49:29;;;;;;;54.25;21.88;;;;;;;12.77;100.00;100718.97;6274354;28;20175;-75
2022/11/10 11:52:41;;;;;;;46.42;18.85;;;;;;;12.79;100.00;100722.34;6273636;28;20481;-78
2022/11/10 11:56:20;;;;;;;47.13;18.52;;;;;;;12.58;100.00;100724.47;6256028;28;20516;-75
2022/11/10 11:59:39;;;;;;;46.83;18.52;;;;;;;12.60;100.00;100724.34;6272813;28;20512;-75
2022/11/10 12:03:18;;;;;;;61.47;22.23;;;;;;;12.27;100.00;100726.25;6274681;28;20547;-77
2022/11/10 12:06:49;;;;;;;48.90;18.80;;;;;;;12.47;100.00;100727.69;6272794;28;20060;-78
2022/11/10 12:09:56;;;;;;;61.30;21.58;;;;;;;12.61;100.00;100726.06;6274612;28;20480;-78
2022/11/10 12:13:00;;;;;;;48.38;21.42;;;;;;;12.63;100.00;100739.91;6272560;28;20071;-75
2022/11/10 12:16:07;;;;;;;52.08;20.92;;;;;;;12.45;100.00;100736.56;6272057;28;20412;-78
2022/11/10 12:19:25;;;;;;;54.15;19.67;;;;;;;12.68;100.00;100748.31;6273670;28;20045;-78
2022/11/10 12:22:44;;;;;;;50.70;20.95;;;;;;;12.58;100.00;100752.41;6273048;28;20063;-78
2022/11/10 12:26:03;;;;;;;54.05;21.48;;;;;;;12.36;100.00;100753.66;6274179;28;20045;-75
2022/11/10 12:29:18;;;;;;;60.58;20.50;;;;;;;12.41;100.00;100741.13;6272241;28;20451;-78
2022/11/10 12:32:41;;;;;;;57.58;23.50;;;;;;;12.42;100.00;100752.47;6274098;28;20064;-78
2022/11/10 12:35:45;;;;;;;68.78;25.88;;;;;;;12.35;100.00;100746.72;6273345;28;20053;-78
2022/11/10 12:39:15;;;;;;;64.18;23.90;;;;;;;12.51;100.00;100749.28;6273129;28;20550;-75
2022/11/10 12:42:21;;;;;;;82.55;29.67;;;;;;;12.61;100.00;100752.22;6271568;28;20056;-75
2022/11/10 12:45:38;;;;;;;67.75;24.50;;;;;;;12.70;100.00;100763.00;6273309;28;20047;-78
2022/11/10 12:48:48;;;;;;;53.70;21.35;;;;;;;12.72;100.00;100768.13;6273609;28;20064;-78
2022/11/10 12:52:13;;;;;;;50.63;20.58;;;;;;;12.67;100.00;100771.03;6271715;28;20481;-77
2022/11/10 12:55:14;;;;;;;57.45;20.67;;;;;;;12.65;100.00;100772.06;6271420;28;20090;-79
2022/11/10 12:58:17;;;;;;;58.65;21.58;;;;;;;12.56;100.00;100773.44;6271988;28;20479;-75
2022/11/10 13:01:19;;;;;;;55.03;22.58;;;;;;;12.57;100.00;100776.91;6271956;28;20408;-75
2022/11/10 13:04:20;;;;;;;53.53;23.38;;;;;;;12.60;100.00;100779.31;6273172;28;20041;-78
2022/11/10 13:07:23;;;;;;;64.13;22.42;;;;;;;12.50;100.00;100786.88;6273451;28;20052;-78
2022/11/10 13:10:26;;;;;;;65.15;25.33;;;;;;;12.44;100.00;100782.00;6270771;28;20057;-75
2022/11/10 13:13:27;;;;;;;61.30;26.42;;;;;;;12.47;100.00;100790.50;6272546;28;20467;-78
2022/11/10 13:16:40;;;;;;;70.88;28.95;;;;;;;12.49;100.00;100798.28;6271558;28;20051;-75
2022/11/10 13:19:49;;;;;;;61.22;27.48;;;;;;;12.45;100.00;100791.53;6272215;28;20041;-75
2022/11/10 13:22:49;;;;;;;54.38;24.00;;;;;;;12.42;100.00;100789.94;6272713;28;20546;-78
2022/11/10 13:25:55;;;;;;;47.78;20.42;;;;;;;12.50;100.00;100798.19;6273130;28;20127;-78
2022/11/10 13:28:58;;;;;;;59.13;20.52;;;;;;;12.45;100.00;100794.97;6271018;28;20138;-75
2022/11/10 13:32:35;;;;;;;50.75;20.00;;;;;;;12.49;100.00;100801.72;6272824;28;20069;-75
2022/11/10 13:35:38;;;;;;;55.72;19.55;;;;;;;12.41;100.00;100788.22;6270581;28;20060;-75
2022/11/10 13:38:43;;;;;;;54.30;20.65;;;;;;;12.49;100.00;100798.28;6271603;28;20064;-78
2022/11/10 13:42:08;;;;;;;51.85;21.05;;;;;;;12.41;100.00;100796.09;6271812;28;20052;-78
2022/11/10 13:45:31;;;;;;;57.95;21.02;;;;;;;12.50;100.00;100797.38;6254480;28;20045;-78
2022/11/10 13:49:01;;;;;;;65.47;22.00;;;;;;;12.46;100.00;100816.78;6276237;28;20045;-75
2022/11/10 13:52:24;;;;;;;72.72;24.40;;;;;;;12.41;100.00;100817.03;6274906;28;20107;-75
2022/11/10 13:55:27;;;;;;;61.47;24.38;;;;;;;12.42;100.00;100818.72;6258941;28;20079;-75
2022/11/10 13:58:33;;;;;;;61.58;23.10;;;;;;;12.24;100.00;100823.22;6276037;28;20095;-75
2022/11/10 14:01:33;;;;;;;65.43;24.50;;;;;;;12.35;100.00;100820.00;6274951;28;20049;-77
2022/11/10 14:04:34;;;;;;;55.92;22.80;;;;;;;12.37;100.00;100825.16;6259580;28;20105;-78
2022/11/10 14:07:42;;;;;;;48.75;19.75;;;;;;;12.30;100.00;100832.50;6277253;28;20041;-78
2022/11/10 14:11:02;;;;;;;59.38;23.05;;;;;;;12.26;100.00;100844.91;6275278;28;20036;-75
2022/11/10 14:14:28;;;;;;;56.97;21.58;;;;;;;12.36;100.00;100841.78;6259090;28;20542;-78
2022/11/10 14:17:38;;;;;;;56.45;20.50;;;;;;;12.35;100.00;100847.94;6275936;28;20037;-78
2022/11/10 14:20:47;;;;;;;55.03;20.55;;;;;;;12.41;100.00;100855.44;6275098;28;20053;-77
2022/11/10 14:24:10;;;;;;;61.85;23.38;;;;;;;12.39;100.00;100865.16;6277144;28;20049;-78
2022/11/10 14:27:17;;;;;;;62.00;22.63;;;;;;;12.19;100.00;100861.00;6275644;28;20136;-78
2022/11/10 14:30:25;;;;;;;50.60;20.30;;;;;;;12.07;100.00;100868.63;6276541;28;20041;-74